sensor_id;sensor_type;location;lat;lon;timestamp;pressure;altitude;pressure_sealevel;temperature
18782;BMP180;9519;51.890;8.970;2023-08-24T00:04:52;99796.00;;;17.50
18782;BMP180;9519;51.890;8.970;2023-08-24T00:09:56;99802.00;;;17.50
18782;BMP180;9519;51.890;8.970;2023-08-24T00:14:58;99785.00;;;17.40
18782;BMP180;9519;51.890;8.970;2023-08-24T00:20:00;99783.00;;;17.30
18782;BMP180;9519;51.890;8.970;2023-08-24T00:25:07;99782.00;;;17.30
18782;BMP180;9519;51.890;8.970;2023-08-24T00:30:11;99781.00;;;17.20
18782;BMP180;9519;51.890;8.970;2023-08-24T00:35:13;99776.00;;;17.20
18782;BMP180;9519;51.890;8.970;2023-08-24T00:40:17;99770.00;;;17.20
18782;BMP180;9519;51.890;8.970;2023-08-24T00:45:21;99763.00;;;17.10
18782;BMP180;9519;51.890;8.970;2023-08-24T00:50:24;99757.00;;;17.10
18782;BMP180;9519;51.890;8.970;2023-08-24T00:55:29;99770.00;;;17.10
18782;BMP180;9519;51.890;8.970;2023-08-24T01:00:32;99762.00;;;17.00
18782;BMP180;9519;51.890;8.970;2023-08-24T01:05:35;99773.00;;;17.00
18782;BMP180;9519;51.890;8.970;2023-08-24T01:10:50;99769.00;;;16.90
18782;BMP180;9519;51.890;8.970;2023-08-24T01:16:02;99786.00;;;16.80
18782;BMP180;9519;51.890;8.970;2023-08-24T01:21:06;99773.00;;;16.70
18782;BMP180;9519;51.890;8.970;2023-08-24T01:26:17;99779.00;;;16.70
18782;BMP180;9519;51.890;8.970;2023-08-24T01:31:19;99773.00;;;16.70
18782;BMP180;9519;51.890;8.970;2023-08-24T01:36:22;99771.00;;;16.60
18782;BMP180;9519;51.890;8.970;2023-08-24T01:41:34;99765.00;;;16.60
18782;BMP180;9519;51.890;8.970;2023-08-24T01:46:42;99767.00;;;16.50
18782;BMP180;9519;51.890;8.970;2023-08-24T01:51:45;99754.00;;;16.50
18782;BMP180;9519;51.890;8.970;2023-08-24T01:56:49;99757.00;;;16.40
18782;BMP180;9519;51.890;8.970;2023-08-24T02:01:51;99748.00;;;16.40
18782;BMP180;9519;51.890;8.970;2023-08-24T02:06:53;99738.00;;;16.40
18782;BMP180;9519;51.890;8.970;2023-08-24T02:11:57;99731.00;;;16.40
18782;BMP180;9519;51.890;8.970;2023-08-24T02:16:59;99721.00;;;16.30
18782;BMP180;9519;51.890;8.970;2023-08-24T02:22:01;99712.00;;;16.30
18782;BMP180;9519;51.890;8.970;2023-08-24T02:27:05;99711.00;;;16.40
18782;BMP180;9519;51.890;8.970;2023-08-24T02:32:09;99708.00;;;16.40
18782;BMP180;9519;51.890;8.970;2023-08-24T02:37:11;99719.00;;;16.40
18782;BMP180;9519;51.890;8.970;2023-08-24T02:42:14;99696.00;;;16.30
18782;BMP180;9519;51.890;8.970;2023-08-24T02:47:16;99705.00;;;16.20
18782;BMP180;9519;51.890;8.970;2023-08-24T02:52:18;99715.00;;;16.20
18782;BMP180;9519;51.890;8.970;2023-08-24T02:57:22;99712.00;;;16.20
18782;BMP180;9519;51.890;8.970;2023-08-24T03:02:24;99711.00;;;16.20
18782;BMP180;9519;51.890;8.970;2023-08-24T03:07:26;99709.00;;;16.10
18782;BMP180;9519;51.890;8.970;2023-08-24T03:12:29;99696.00;;;16.10
18782;BMP180;9519;51.890;8.970;2023-08-24T03:17:31;99689.00;;;16.00
18782;BMP180;9519;51.890;8.970;2023-08-24T03:22:34;99693.00;;;16.00
18782;BMP180;9519;51.890;8.970;2023-08-24T03:27:38;99705.00;;;16.00
18782;BMP180;9519;51.890;8.970;2023-08-24T03:32:40;99708.00;;;15.90
18782;BMP180;9519;51.890;8.970;2023-08-24T03:37:42;99701.00;;;15.80
18782;BMP180;9519;51.890;8.970;2023-08-24T03:42:46;99694.00;;;15.80
18782;BMP180;9519;51.890;8.970;2023-08-24T03:47:50;99693.00;;;15.80
18782;BMP180;9519;51.890;8.970;2023-08-24T03:52:54;99702.00;;;15.70
18782;BMP180;9519;51.890;8.970;2023-08-24T03:57:57;99709.00;;;15.70
18782;BMP180;9519;51.890;8.970;2023-08-24T04:03:00;99722.00;;;15.70
18782;BMP180;9519;51.890;8.970;2023-08-24T04:08:03;99712.00;;;15.70
18782;BMP180;9519;51.890;8.970;2023-08-24T04:13:07;99717.00;;;15.70
18782;BMP180;9519;51.890;8.970;2023-08-24T04:18:09;99725.00;;;15.70
18782;BMP180;9519;51.890;8.970;2023-08-24T04:23:13;99718.00;;;15.60
18782;BMP180;9519;51.890;8.970;2023-08-24T04:28:18;99698.00;;;15.60
18782;BMP180;9519;51.890;8.970;2023-08-24T04:33:20;99690.00;;;15.70
18782;BMP180;9519;51.890;8.970;2023-08-24T04:38:22;99686.00;;;15.70
18782;BMP180;9519;51.890;8.970;2023-08-24T04:43:26;99705.00;;;15.70
18782;BMP180;9519;51.890;8.970;2023-08-24T04:48:28;99709.00;;;15.80
18782;BMP180;9519;51.890;8.970;2023-08-24T04:53:33;99716.00;;;15.80
18782;BMP180;9519;51.890;8.970;2023-08-24T04:58:36;99710.00;;;15.90
18782;BMP180;9519;51.890;8.970;2023-08-24T05:03:39;99708.00;;;16.00
18782;BMP180;9519;51.890;8.970;2023-08-24T05:08:41;99714.00;;;16.00
18782;BMP180;9519;51.890;8.970;2023-08-24T05:13:45;99721.00;;;16.00
18782;BMP180;9519;51.890;8.970;2023-08-24T05:18:47;99734.00;;;16.00
18782;BMP180;9519;51.890;8.970;2023-08-24T05:23:50;99739.00;;;16.00
18782;BMP180;9519;51.890;8.970;2023-08-24T05:28:54;99721.00;;;16.10
18782;BMP180;9519;51.890;8.970;2023-08-24T05:33:56;99723.00;;;16.10
18782;BMP180;9519;51.890;8.970;2023-08-24T05:38:58;99718.00;;;16.20
18782;BMP180;9519;51.890;8.970;2023-08-24T05:44:01;99715.00;;;16.20
18782;BMP180;9519;51.890;8.970;2023-08-24T05:49:03;99721.00;;;16.30
18782;BMP180;9519;51.890;8.970;2023-08-24T05:54:05;99714.00;;;16.30
18782;BMP180;9519;51.890;8.970;2023-08-24T05:59:09;99702.00;;;16.40
18782;BMP180;9519;51.890;8.970;2023-08-24T06:04:11;99690.00;;;16.50
18782;BMP180;9519;51.890;8.970;2023-08-24T06:09:13;99685.00;;;16.50
18782;BMP180;9519;51.890;8.970;2023-08-24T06:14:17;99681.00;;;16.60
18782;BMP180;9519;51.890;8.970;2023-08-24T06:19:19;99671.00;;;16.60
18782;BMP180;9519;51.890;8.970;2023-08-24T06:24:21;99661.00;;;16.60
18782;BMP180;9519;51.890;8.970;2023-08-24T06:29:24;99676.00;;;16.60
18782;BMP180;9519;51.890;8.970;2023-08-24T06:34:27;99649.00;;;16.60
18782;BMP180;9519;51.890;8.970;2023-08-24T06:39:29;99633.00;;;16.60
18782;BMP180;9519;51.890;8.970;2023-08-24T06:44:32;99624.00;;;16.60
18782;BMP180;9519;51.890;8.970;2023-08-24T06:49:34;99636.00;;;16.70
18782;BMP180;9519;51.890;8.970;2023-08-24T06:54:36;99643.00;;;16.70
18782;BMP180;9519;51.890;8.970;2023-08-24T06:59:40;99638.00;;;16.80
18782;BMP180;9519;51.890;8.970;2023-08-24T07:04:42;99617.00;;;16.90
18782;BMP180;9519;51.890;8.970;2023-08-24T07:09:45;99613.00;;;17.00
18782;BMP180;9519;51.890;8.970;2023-08-24T07:14:49;99605.00;;;17.10
18782;BMP180;9519;51.890;8.970;2023-08-24T07:19:51;99607.00;;;17.30
18782;BMP180;9519;51.890;8.970;2023-08-24T07:24:53;99587.00;;;17.40
18782;BMP180;9519;51.890;8.970;2023-08-24T07:29:57;99571.00;;;17.60
18782;BMP180;9519;51.890;8.970;2023-08-24T07:34:59;99563.00;;;17.70
18782;BMP180;9519;51.890;8.970;2023-08-24T07:40:04;99571.00;;;17.90
18782;BMP180;9519;51.890;8.970;2023-08-24T07:45:09;99573.00;;;18.00
18782;BMP180;9519;51.890;8.970;2023-08-24T07:50:13;99564.00;;;18.20
18782;BMP180;9519;51.890;8.970;2023-08-24T07:55:15;99564.00;;;18.20
18782;BMP180;9519;51.890;8.970;2023-08-24T08:00:20;99553.00;;;18.30
18782;BMP180;9519;51.890;8.970;2023-08-24T08:05:22;99544.00;;;18.50
18782;BMP180;9519;51.890;8.970;2023-08-24T08:10:24;99548.00;;;18.60
18782;BMP180;9519;51.890;8.970;2023-08-24T08:15:28;99560.00;;;18.70
18782;BMP180;9519;51.890;8.970;2023-08-24T08:20:30;99561.00;;;18.80
18782;BMP180;9519;51.890;8.970;2023-08-24T08:25:32;99562.00;;;19.00
18782;BMP180;9519;51.890;8.970;2023-08-24T08:30:36;99561.00;;;19.10
18782;BMP180;9519;51.890;8.970;2023-08-24T08:35:39;99562.00;;;19.30
18782;BMP180;9519;51.890;8.970;2023-08-24T08:40:42;99561.00;;;19.40
18782;BMP180;9519;51.890;8.970;2023-08-24T08:45:48;99563.00;;;19.60
18782;BMP180;9519;51.890;8.970;2023-08-24T08:50:52;99561.00;;;19.90
18782;BMP180;9519;51.890;8.970;2023-08-24T08:55:56;99562.00;;;20.00
18782;BMP180;9519;51.890;8.970;2023-08-24T09:01:06;99554.00;;;20.20
18782;BMP180;9519;51.890;8.970;2023-08-24T09:06:09;99532.00;;;20.40
18782;BMP180;9519;51.890;8.970;2023-08-24T09:11:17;99520.00;;;20.60
18782;BMP180;9519;51.890;8.970;2023-08-24T09:16:22;99507.00;;;20.80
18782;BMP180;9519;51.890;8.970;2023-08-24T09:21:24;99502.00;;;21.00
18782;BMP180;9519;51.890;8.970;2023-08-24T09:26:31;99503.00;;;21.20
18782;BMP180;9519;51.890;8.970;2023-08-24T09:31:37;99498.00;;;21.40
18782;BMP180;9519;51.890;8.970;2023-08-24T09:36:40;99479.00;;;21.50
18782;BMP180;9519;51.890;8.970;2023-08-24T09:41:45;99468.00;;;21.70
18782;BMP180;9519;51.890;8.970;2023-08-24T09:46:50;99460.00;;;21.90
18782;BMP180;9519;51.890;8.970;2023-08-24T09:51:56;99469.00;;;22.10
18782;BMP180;9519;51.890;8.970;2023-08-24T09:57:02;99453.00;;;22.30
18782;BMP180;9519;51.890;8.970;2023-08-24T10:02:16;99440.00;;;22.50
18782;BMP180;9519;51.890;8.970;2023-08-24T10:07:22;99439.00;;;22.70
18782;BMP180;9519;51.890;8.970;2023-08-24T10:12:28;99449.00;;;22.90
18782;BMP180;9519;51.890;8.970;2023-08-24T10:17:36;99450.00;;;23.00
18782;BMP180;9519;51.890;8.970;2023-08-24T10:22:43;99443.00;;;23.20
18782;BMP180;9519;51.890;8.970;2023-08-24T10:27:46;99430.00;;;23.40
18782;BMP180;9519;51.890;8.970;2023-08-24T10:32:53;99426.00;;;23.50
18782;BMP180;9519;51.890;8.970;2023-08-24T10:37:58;99434.00;;;23.80
18782;BMP180;9519;51.890;8.970;2023-08-24T10:43:04;99426.00;;;24.00
18782;BMP180;9519;51.890;8.970;2023-08-24T10:48:11;99432.00;;;24.10
18782;BMP180;9519;51.890;8.970;2023-08-24T10:53:37;99413.00;;;24.30
18782;BMP180;9519;51.890;8.970;2023-08-24T10:58:40;99420.00;;;24.40
18782;BMP180;9519;51.890;8.970;2023-08-24T11:03:49;99436.00;;;24.50
18782;BMP180;9519;51.890;8.970;2023-08-24T11:09:06;99452.00;;;24.70
18782;BMP180;9519;51.890;8.970;2023-08-24T11:14:15;99429.00;;;24.80
18782;BMP180;9519;51.890;8.970;2023-08-24T11:19:19;99398.00;;;24.90
18782;BMP180;9519;51.890;8.970;2023-08-24T11:24:22;99389.00;;;25.00
18782;BMP180;9519;51.890;8.970;2023-08-24T11:29:25;99375.00;;;25.10
18782;BMP180;9519;51.890;8.970;2023-08-24T11:34:29;99366.00;;;25.20
18782;BMP180;9519;51.890;8.970;2023-08-24T11:39:31;99361.00;;;25.30
18782;BMP180;9519;51.890;8.970;2023-08-24T11:44:46;99342.00;;;25.40
18782;BMP180;9519;51.890;8.970;2023-08-24T11:49:49;99347.00;;;25.40
18782;BMP180;9519;51.890;8.970;2023-08-24T11:54:52;99340.00;;;25.60
18782;BMP180;9519;51.890;8.970;2023-08-24T11:59:54;99327.00;;;25.60
18782;BMP180;9519;51.890;8.970;2023-08-24T12:04:58;99304.00;;;25.80
18782;BMP180;9519;51.890;8.970;2023-08-24T12:10:01;99291.00;;;25.90
18782;BMP180;9519;51.890;8.970;2023-08-24T12:15:04;99279.00;;;26.00
18782;BMP180;9519;51.890;8.970;2023-08-24T12:20:18;99278.00;;;26.00
18782;BMP180;9519;51.890;8.970;2023-08-24T12:25:23;99277.00;;;26.10
18782;BMP180;9519;51.890;8.970;2023-08-24T12:30:25;99277.00;;;26.20
18782;BMP180;9519;51.890;8.970;2023-08-24T12:35:29;99271.00;;;26.30
18782;BMP180;9519;51.890;8.970;2023-08-24T12:40:31;99271.00;;;26.40
18782;BMP180;9519;51.890;8.970;2023-08-24T12:45:33;99259.00;;;26.40
18782;BMP180;9519;51.890;8.970;2023-08-24T12:50:39;99265.00;;;26.40
18782;BMP180;9519;51.890;8.970;2023-08-24T12:55:41;99260.00;;;26.50
18782;BMP180;9519;51.890;8.970;2023-08-24T13:00:43;99268.00;;;26.50
18782;BMP180;9519;51.890;8.970;2023-08-24T13:05:47;99260.00;;;26.60
18782;BMP180;9519;51.890;8.970;2023-08-24T13:10:49;99267.00;;;26.60
18782;BMP180;9519;51.890;8.970;2023-08-24T13:15:52;99267.00;;;26.80
18782;BMP180;9519;51.890;8.970;2023-08-24T13:20:56;99250.00;;;26.90
18782;BMP180;9519;51.890;8.970;2023-08-24T13:25:58;99242.00;;;26.90
18782;BMP180;9519;51.890;8.970;2023-08-24T13:31:00;99233.00;;;27.00
18782;BMP180;9519;51.890;8.970;2023-08-24T13:36:04;99231.00;;;27.10
18782;BMP180;9519;51.890;8.970;2023-08-24T13:41:06;99228.00;;;27.10
18782;BMP180;9519;51.890;8.970;2023-08-24T13:46:08;99208.00;;;27.20
18782;BMP180;9519;51.890;8.970;2023-08-24T13:51:12;99188.00;;;27.20
18782;BMP180;9519;51.890;8.970;2023-08-24T13:56:14;99171.00;;;27.20
18782;BMP180;9519;51.890;8.970;2023-08-24T14:01:19;99180.00;;;27.20
18782;BMP180;9519;51.890;8.970;2023-08-24T14:06:23;99180.00;;;27.20
18782;BMP180;9519;51.890;8.970;2023-08-24T14:11:25;99201.00;;;27.20
18782;BMP180;9519;51.890;8.970;2023-08-24T14:16:27;99192.00;;;27.20
18782;BMP180;9519;51.890;8.970;2023-08-24T14:21:30;99189.00;;;27.10
18782;BMP180;9519;51.890;8.970;2023-08-24T14:26:33;99178.00;;;27.10
18782;BMP180;9519;51.890;8.970;2023-08-24T14:31:35;99181.00;;;27.10
18782;BMP180;9519;51.890;8.970;2023-08-24T14:36:38;99181.00;;;27.10
18782;BMP180;9519;51.890;8.970;2023-08-24T14:41:40;99191.00;;;27.10
18782;BMP180;9519;51.890;8.970;2023-08-24T14:46:42;99188.00;;;27.10
18782;BMP180;9519;51.890;8.970;2023-08-24T14:51:46;99191.00;;;27.00
18782;BMP180;9519;51.890;8.970;2023-08-24T14:56:48;99192.00;;;27.00
18782;BMP180;9519;51.890;8.970;2023-08-24T15:01:50;99197.00;;;26.90
18782;BMP180;9519;51.890;8.970;2023-08-24T15:06:55;99192.00;;;26.80
18782;BMP180;9519;51.890;8.970;2023-08-24T15:11:57;99167.00;;;26.70
18782;BMP180;9519;51.890;8.970;2023-08-24T15:17:02;99160.00;;;26.60
18782;BMP180;9519;51.890;8.970;2023-08-24T15:22:08;99150.00;;;26.50
18782;BMP180;9519;51.890;8.970;2023-08-24T15:27:11;99139.00;;;26.40
18782;BMP180;9519;51.890;8.970;2023-08-24T15:32:13;99137.00;;;26.30
18782;BMP180;9519;51.890;8.970;2023-08-24T15:37:17;99126.00;;;26.20
18782;BMP180;9519;51.890;8.970;2023-08-24T15:42:19;99114.00;;;26.20
18782;BMP180;9519;51.890;8.970;2023-08-24T15:47:21;99098.00;;;26.20
18782;BMP180;9519;51.890;8.970;2023-08-24T15:52:24;99103.00;;;26.10
18782;BMP180;9519;51.890;8.970;2023-08-24T15:57:27;99103.00;;;26.10
18782;BMP180;9519;51.890;8.970;2023-08-24T16:02:29;99122.00;;;26.00
18782;BMP180;9519;51.890;8.970;2023-08-24T16:07:32;99112.00;;;25.90
18782;BMP180;9519;51.890;8.970;2023-08-24T16:12:35;99127.00;;;25.90
18782;BMP180;9519;51.890;8.970;2023-08-24T16:17:37;99131.00;;;25.90
18782;BMP180;9519;51.890;8.970;2023-08-24T16:22:40;99126.00;;;25.90
18782;BMP180;9519;51.890;8.970;2023-08-24T16:27:42;99128.00;;;25.80
18782;BMP180;9519;51.890;8.970;2023-08-24T16:32:44;99113.00;;;25.80
18782;BMP180;9519;51.890;8.970;2023-08-24T16:37:50;99117.00;;;25.70
18782;BMP180;9519;51.890;8.970;2023-08-24T16:42:52;99108.00;;;25.70
18782;BMP180;9519;51.890;8.970;2023-08-24T16:47:55;99113.00;;;25.60
18782;BMP180;9519;51.890;8.970;2023-08-24T16:52:59;99107.00;;;25.60
18782;BMP180;9519;51.890;8.970;2023-08-24T16:58:01;99100.00;;;25.50
18782;BMP180;9519;51.890;8.970;2023-08-24T17:03:03;99094.00;;;25.50
18782;BMP180;9519;51.890;8.970;2023-08-24T17:08:09;99090.00;;;25.40
18782;BMP180;9519;51.890;8.970;2023-08-24T17:13:12;99086.00;;;25.40
18782;BMP180;9519;51.890;8.970;2023-08-24T17:18:14;99091.00;;;25.40
18782;BMP180;9519;51.890;8.970;2023-08-24T17:23:17;99080.00;;;25.40
18782;BMP180;9519;51.890;8.970;2023-08-24T17:28:20;99064.00;;;25.30
18782;BMP180;9519;51.890;8.970;2023-08-24T17:33:22;99052.00;;;25.30
18782;BMP180;9519;51.890;8.970;2023-08-24T17:38:25;99040.00;;;25.30
18782;BMP180;9519;51.890;8.970;2023-08-24T17:43:28;99034.00;;;25.20
18782;BMP180;9519;51.890;8.970;2023-08-24T17:48:30;99037.00;;;25.20
18782;BMP180;9519;51.890;8.970;2023-08-24T17:53:34;99032.00;;;25.10
18782;BMP180;9519;51.890;8.970;2023-08-24T17:58:36;99024.00;;;25.10
18782;BMP180;9519;51.890;8.970;2023-08-24T18:03:38;99038.00;;;25.00
18782;BMP180;9519;51.890;8.970;2023-08-24T18:08:42;99034.00;;;24.90
18782;BMP180;9519;51.890;8.970;2023-08-24T18:13:44;99043.00;;;24.80
18782;BMP180;9519;51.890;8.970;2023-08-24T18:18:47;99047.00;;;24.80
18782;BMP180;9519;51.890;8.970;2023-08-24T18:23:51;99047.00;;;24.70
18782;BMP180;9519;51.890;8.970;2023-08-24T18:28:53;99052.00;;;24.60
18782;BMP180;9519;51.890;8.970;2023-08-24T18:33:55;99053.00;;;24.50
18782;BMP180;9519;51.890;8.970;2023-08-24T18:38:59;99053.00;;;24.40
18782;BMP180;9519;51.890;8.970;2023-08-24T18:44:01;99039.00;;;24.30
18782;BMP180;9519;51.890;8.970;2023-08-24T18:49:04;99055.00;;;24.20
18782;BMP180;9519;51.890;8.970;2023-08-24T18:54:07;99069.00;;;24.00
18782;BMP180;9519;51.890;8.970;2023-08-24T18:59:09;99069.00;;;23.90
18782;BMP180;9519;51.890;8.970;2023-08-24T19:04:11;99076.00;;;23.80
18782;BMP180;9519;51.890;8.970;2023-08-24T19:09:15;99068.00;;;23.70
18782;BMP180;9519;51.890;8.970;2023-08-24T19:14:18;99066.00;;;23.70
18782;BMP180;9519;51.890;8.970;2023-08-24T19:19:20;99053.00;;;23.60
18782;BMP180;9519;51.890;8.970;2023-08-24T19:24:23;99031.00;;;23.60
18782;BMP180;9519;51.890;8.970;2023-08-24T19:30:18;99033.00;;;23.60
18782;BMP180;9519;51.890;8.970;2023-08-24T19:35:29;99019.00;;;23.50
18782;BMP180;9519;51.890;8.970;2023-08-24T19:40:36;99034.00;;;23.40
18782;BMP180;9519;51.890;8.970;2023-08-24T19:45:39;99037.00;;;23.30
18782;BMP180;9519;51.890;8.970;2023-08-24T19:57:01;99021.00;;;23.20
18782;BMP180;9519;51.890;8.970;2023-08-24T20:02:03;99011.00;;;23.10
18782;BMP180;9519;51.890;8.970;2023-08-24T20:07:06;98995.00;;;23.10
18782;BMP180;9519;51.890;8.970;2023-08-24T20:12:09;98976.00;;;23.00
18782;BMP180;9519;51.890;8.970;2023-08-24T20:17:11;98973.00;;;23.00
18782;BMP180;9519;51.890;8.970;2023-08-24T20:22:14;98978.00;;;22.90
18782;BMP180;9519;51.890;8.970;2023-08-24T20:27:17;98971.00;;;22.90
18782;BMP180;9519;51.890;8.970;2023-08-24T20:32:19;98964.00;;;22.90
18782;BMP180;9519;51.890;8.970;2023-08-24T20:37:22;98957.00;;;22.80
18782;BMP180;9519;51.890;8.970;2023-08-24T20:42:25;98975.00;;;22.70
18782;BMP180;9519;51.890;8.970;2023-08-24T20:47:28;98969.00;;;22.70
18782;BMP180;9519;51.890;8.970;2023-08-24T20:52:30;98978.00;;;22.70
18782;BMP180;9519;51.890;8.970;2023-08-24T20:57:35;98969.00;;;22.60
18782;BMP180;9519;51.890;8.970;2023-08-24T21:02:37;98973.00;;;22.50
18782;BMP180;9519;51.890;8.970;2023-08-24T21:07:41;98969.00;;;22.50
18782;BMP180;9519;51.890;8.970;2023-08-24T21:12:44;98979.00;;;22.40
18782;BMP180;9519;51.890;8.970;2023-08-24T21:17:47;98972.00;;;22.20
18782;BMP180;9519;51.890;8.970;2023-08-24T21:22:49;98967.00;;;22.10
18782;BMP180;9519;51.890;8.970;2023-08-24T21:27:53;98959.00;;;22.00
18782;BMP180;9519;51.890;8.970;2023-08-24T21:32:55;98958.00;;;21.90
18782;BMP180;9519;51.890;8.970;2023-08-24T21:37:57;98947.00;;;21.80
18782;BMP180;9519;51.890;8.970;2023-08-24T21:43:00;98953.00;;;21.60
18782;BMP180;9519;51.890;8.970;2023-08-24T21:48:04;98951.00;;;21.50
18782;BMP180;9519;51.890;8.970;2023-08-24T21:53:07;98961.00;;;21.40
18782;BMP180;9519;51.890;8.970;2023-08-24T21:58:10;98966.00;;;21.30
18782;BMP180;9519;51.890;8.970;2023-08-24T22:03:13;98969.00;;;21.20
18782;BMP180;9519;51.890;8.970;2023-08-24T22:08:15;98975.00;;;21.10
18782;BMP180;9519;51.890;8.970;2023-08-24T22:13:21;98972.00;;;21.00
18782;BMP180;9519;51.890;8.970;2023-08-24T22:18:23;98979.00;;;21.00
18782;BMP180;9519;51.890;8.970;2023-08-24T22:23:26;98962.00;;;20.90
18782;BMP180;9519;51.890;8.970;2023-08-24T22:28:29;98961.00;;;20.90
18782;BMP180;9519;51.890;8.970;2023-08-24T22:33:31;98976.00;;;20.80
18782;BMP180;9519;51.890;8.970;2023-08-24T22:38:36;98974.00;;;20.70
18782;BMP180;9519;51.890;8.970;2023-08-24T22:43:39;98985.00;;;20.70
18782;BMP180;9519;51.890;8.970;2023-08-24T22:48:41;99000.00;;;20.50
18782;BMP180;9519;51.890;8.970;2023-08-24T22:53:43;99018.00;;;20.40
18782;BMP180;9519;51.890;8.970;2023-08-24T22:58:47;99020.00;;;20.30
18782;BMP180;9519;51.890;8.970;2023-08-24T23:03:49;99006.00;;;20.30
18782;BMP180;9519;51.890;8.970;2023-08-24T23:08:51;99016.00;;;20.20
18782;BMP180;9519;51.890;8.970;2023-08-24T23:13:54;99021.00;;;20.20
18782;BMP180;9519;51.890;8.970;2023-08-24T23:18:56;99019.00;;;20.20
18782;BMP180;9519;51.890;8.970;2023-08-24T23:23:59;99010.00;;;20.10
18782;BMP180;9519;51.890;8.970;2023-08-24T23:29:02;99014.00;;;20.10
18782;BMP180;9519;51.890;8.970;2023-08-24T23:34:04;99016.00;;;20.10
18782;BMP180;9519;51.890;8.970;2023-08-24T23:39:06;99014.00;;;20.00
18782;BMP180;9519;51.890;8.970;2023-08-24T23:44:11;99004.00;;;19.90
18782;BMP180;9519;51.890;8.970;2023-08-24T23:49:14;98988.00;;;19.80
18782;BMP180;9519;51.890;8.970;2023-08-24T23:55:28;98978.00;;;19.80
